Wheatley Heights, New York
Current Conditions -  °F | °C
As of 3:53 AM on Monday 22 Dec 2014 (Local Time) from KFRG Reporting Station
Overcast Overcast  
Wind Chill: 32°   Ceiling: 800
Heat Index: 37°   Visibility: 10mi
Dew Point: 34°   Wind: 6mph
Humidity: 89%   Direction: 20°NNE
Pressure: 30.32"   Gusts: NA
Location:  40.7545°N, 73.3665°W
Report Text: KFRG 220853Z AUTO 02005KT 10SM OVC008 03/01 A3032 RMK AO2 SLP266 T00280011 58002
Loading
Personal Weather Stations






























Interactive Weather Map New forecast layout! Learn more

10-Day Weather Forecast

Advertisements
Track Severe Weather on mobile